Time;durP1;ratioP1;P1;durP2;ratioP2;P2;SDS_P1;SDS_P2;PMS_P1;PMS_P2;Temp;Humidity;BMP_temperature;BMP_pressure;BME280_temperature;BME280_humidity;BME280_pressure;Samples;Min_cycle;Max_cycle;Signal;HPM_P1;HPM_P2
2023/09/29 04:31:20;;;;;;;0.00;0.00;;;19.00;77.60;;;;;;5425966;23;20048;-78
2023/09/29 04:33:45;;;;;;;0.00;0.00;;;19.00;78.00;;;;;;4899995;29;20111;-78
2023/09/29 04:36:11;;;;;;;0.00;0.00;;;19.00;78.00;;;;;;4901478;29;20161;-78
2023/09/29 04:38:37;;;;;;;0.00;0.00;;;19.00;78.30;;;;;;4903644;29;20033;-79
2023/09/29 04:41:04;;;;;;;0.10;0.10;;;18.90;78.20;;;;;;4893332;29;20040;-79
2023/09/29 04:43:30;;;;;;;0.00;0.00;;;18.90;78.20;;;;;;4867807;29;20025;-78
2023/09/29 04:45:56;;;;;;;0.00;0.00;;;19.00;78.50;;;;;;4884198;29;20399;-78
2023/09/29 04:48:22;;;;;;;0.00;0.00;;;19.00;78.30;;;;;;4885084;29;20025;-79
2023/09/29 04:50:48;;;;;;;0.00;0.00;;;18.90;78.80;;;;;;4885927;29;20452;-79
2023/09/29 04:53:14;;;;;;;0.00;0.00;;;18.90;78.70;;;;;;4903506;29;20039;-77
2023/09/29 04:55:39;;;;;;;0.00;0.00;;;18.90;78.60;;;;;;4887737;29;20496;-76
2023/09/29 04:58:05;;;;;;;0.00;0.00;;;18.90;78.50;;;;;;4884499;29;20080;-77
2023/09/29 05:00:31;;;;;;;0.00;0.00;;;18.90;78.80;;;;;;4867155;29;20084;-77
2023/09/29 05:02:56;;;;;;;0.00;0.00;;;18.90;78.50;;;;;;4885632;29;20029;-78
2023/09/29 05:05:22;;;;;;;0.00;0.00;;;18.90;78.60;;;;;;4889356;29;20037;-77
2023/09/29 05:07:48;;;;;;;0.00;0.00;;;18.80;78.40;;;;;;4902321;29;20035;-76
2023/09/29 05:10:13;;;;;;;0.00;0.00;;;18.80;78.50;;;;;;4902753;29;20119;-76
2023/09/29 05:12:40;;;;;;;0.00;0.00;;;18.70;78.30;;;;;;4886233;29;20040;-78
2023/09/29 05:15:07;;;;;;;0.00;0.00;;;18.60;78.30;;;;;;4891204;29;20109;-77
2023/09/29 05:17:33;;;;;;;0.00;0.00;;;18.60;78.50;;;;;;4889188;29;20032;-78
2023/09/29 05:19:59;;;;;;;0.00;0.00;;;18.60;78.60;;;;;;4890907;29;20069;-78
2023/09/29 05:22:24;;;;;;;0.00;0.00;;;18.60;78.60;;;;;;4890166;29;20022;-75
2023/09/29 05:24:50;;;;;;;0.00;0.00;;;18.60;78.80;;;;;;4890620;29;20025;-75
2023/09/29 05:27:16;;;;;;;0.00;0.00;;;18.60;78.90;;;;;;4883989;29;20071;-75
2023/09/29 05:29:41;;;;;;;0.00;0.00;;;18.70;78.90;;;;;;4899064;29;20039;-75
2023/09/29 05:32:07;;;;;;;0.00;0.00;;;18.70;79.00;;;;;;4892632;29;20128;-76
2023/09/29 05:34:33;;;;;;;0.00;0.00;;;18.60;78.90;;;;;;4866476;29;20037;-79
2023/09/29 05:36:59;;;;;;;0.00;0.00;;;18.70;78.90;;;;;;4882105;29;20033;-75
2023/09/29 05:39:25;;;;;;;0.00;0.00;;;18.70;79.00;;;;;;4883307;29;20040;-76
2023/09/29 05:41:50;;;;;;;0.00;0.00;;;18.70;79.30;;;;;;4900163;29;20029;-75
2023/09/29 05:44:16;;;;;;;0.00;0.00;;;18.70;79.10;;;;;;4885360;29;20040;-75
2023/09/29 05:46:41;;;;;;;0.00;0.00;;;18.70;79.30;;;;;;4868523;29;20040;-75
2023/09/29 05:49:09;;;;;;;0.00;0.00;;;18.70;79.30;;;;;;4898016;29;20415;-75
2023/09/29 05:51:36;;;;;;;0.00;0.00;;;18.60;79.50;;;;;;4899212;29;20025;-77
2023/09/29 05:54:05;;;;;;;0.00;0.00;;;18.70;79.60;;;;;;4892398;29;20484;-77
2023/09/29 05:56:31;;;;;;;0.00;0.00;;;18.70;79.70;;;;;;4882960;29;20021;-77
2023/09/29 05:58:57;;;;;;;0.00;0.00;;;18.60;79.80;;;;;;4866967;29;20437;-76
2023/09/29 06:01:25;;;;;;;0.10;0.10;;;18.60;79.80;;;;;;4883165;29;20026;-76
2023/09/29 06:03:51;;;;;;;0.00;0.00;;;18.50;80.40;;;;;;4875857;29;20079;-76
2023/09/29 06:06:17;;;;;;;0.00;0.00;;;18.50;80.70;;;;;;4901922;29;20488;-76
2023/09/29 06:08:44;;;;;;;0.00;0.00;;;18.50;80.90;;;;;;4883784;29;20067;-76
2023/09/29 06:11:11;;;;;;;0.00;0.00;;;18.50;81.00;;;;;;4883066;29;20025;-76
2023/09/29 06:13:40;;;;;;;0.00;0.00;;;18.50;81.20;;;;;;4882269;29;20043;-76
2023/09/29 06:16:06;;;;;;;0.10;0.10;;;18.50;81.20;;;;;;4882757;29;20029;-75
2023/09/29 06:18:32;;;;;;;0.00;0.00;;;18.50;81.20;;;;;;4882853;29;20124;-85
2023/09/29 06:20:58;;;;;;;0.00;0.00;;;18.40;81.50;;;;;;4883015;29;20033;-78
2023/09/29 06:23:26;;;;;;;0.00;0.00;;;18.50;81.40;;;;;;4889738;29;20036;-77
2023/09/29 06:25:59;;;;;;;0.00;0.00;;;18.50;81.50;;;;;;4897325;29;20400;-75
2023/09/29 06:28:24;;;;;;;;;;;18.50;81.30;;;;;;4894471;29;20033;-79
2023/09/29 06:30:52;;;;;;;0.00;0.00;;;18.50;81.50;;;;;;4860389;29;19920;-76
2023/09/29 06:33:18;;;;;;;0.00;0.00;;;18.40;81.50;;;;;;4864223;29;20034;-75
2023/09/29 06:35:44;;;;;;;0.00;0.00;;;18.40;81.40;;;;;;4847063;29;20044;-75
2023/09/29 06:38:09;;;;;;;0.00;0.00;;;18.40;81.70;;;;;;4863432;29;20097;-75
2023/09/29 06:40:35;;;;;;;0.00;0.00;;;18.30;81.80;;;;;;4866900;29;20094;-74
2023/09/29 06:43:01;;;;;;;0.00;0.00;;;18.30;81.80;;;;;;4852202;29;20132;-75
2023/09/29 06:45:29;;;;;;;0.00;0.00;;;18.40;81.90;;;;;;4871141;29;20033;-80
2023/09/29 06:47:55;;;;;;;0.00;0.00;;;18.40;81.90;;;;;;4863655;29;20029;-77
2023/09/29 06:50:21;;;;;;;0.00;0.00;;;18.50;81.90;;;;;;4871856;29;20028;-77
2023/09/29 06:52:47;;;;;;;0.00;0.00;;;18.40;81.90;;;;;;4881724;29;20489;-83
2023/09/29 06:55:13;;;;;;;0.00;0.00;;;18.40;82.40;;;;;;4881845;29;20099;-78
2023/09/29 06:57:39;;;;;;;0.00;0.00;;;18.50;82.40;;;;;;4880776;29;20033;-78
2023/09/29 07:00:11;;;;;;;0.00;0.00;;;18.50;82.60;;;;;;4880893;29;20374;-78
2023/09/29 07:02:41;;;;;;;0.10;0.10;;;18.50;82.50;;;;;;4869667;29;20772;-78
2023/09/29 07:05:07;;;;;;;0.00;0.00;;;18.60;82.50;;;;;;4865636;29;20032;-78
2023/09/29 07:07:33;;;;;;;0.10;0.10;;;18.70;82.30;;;;;;4862760;29;20033;-78
2023/09/29 07:09:59;;;;;;;0.03;0.03;;;18.80;82.20;;;;;;4876642;29;20064;-77
2023/09/29 07:12:25;;;;;;;0.00;0.00;;;18.80;82.10;;;;;;4861083;29;20477;-77
2023/09/29 07:15:00;;;;;;;0.00;0.00;;;18.80;82.10;;;;;;4863182;29;20501;-77
2023/09/29 07:17:25;;;;;;;0.00;0.00;;;18.80;82.20;;;;;;4862818;29;20045;-78
2023/09/29 07:19:51;;;;;;;0.00;0.00;;;18.80;82.10;;;;;;4849070;29;20044;-77
2023/09/29 07:22:17;;;;;;;0.00;0.00;;;18.80;82.10;;;;;;4851596;29;20717;-77
2023/09/29 07:24:43;;;;;;;0.00;0.00;;;18.80;82.00;;;;;;4845610;29;21488;-77
2023/09/29 07:27:11;;;;;;;0.00;0.00;;;18.80;82.00;;;;;;4854800;29;20030;-78
2023/09/29 07:29:36;;;;;;;0.20;0.10;;;18.80;81.80;;;;;;4862785;29;20025;-78
2023/09/29 07:32:05;;;;;;;0.10;0.10;;;18.80;81.60;;;;;;4880448;29;20064;-78
2023/09/29 07:34:31;;;;;;;0.00;0.00;;;18.80;81.60;;;;;;4895300;29;20036;-77
2023/09/29 07:36:56;;;;;;;0.00;0.00;;;18.80;81.00;;;;;;4888856;29;20025;-77
2023/09/29 07:39:22;;;;;;;0.00;0.00;;;18.80;81.00;;;;;;4900160;29;20813;-78
2023/09/29 07:41:48;;;;;;;0.00;0.00;;;18.80;80.90;;;;;;4880376;29;20032;-77
2023/09/29 07:44:17;;;;;;;0.00;0.00;;;18.80;80.90;;;;;;4900218;29;20403;-78
2023/09/29 07:46:42;;;;;;;0.10;0.10;;;19.00;80.60;;;;;;4889526;29;20029;-77
2023/09/29 07:49:08;;;;;;;0.05;0.05;;;19.00;80.30;;;;;;4880261;29;20036;-77
2023/09/29 07:51:34;;;;;;;0.00;0.00;;;19.10;80.30;;;;;;4879999;29;20029;-77
2023/09/29 07:54:01;;;;;;;0.00;0.00;;;19.20;79.90;;;;;;4885497;29;20122;-77
2023/09/29 07:56:26;;;;;;;0.00;0.00;;;19.20;79.50;;;;;;4871724;29;20070;-78
2023/09/29 07:58:54;;;;;;;0.00;0.00;;;19.30;79.60;;;;;;4869460;29;20032;-77
2023/09/29 08:01:19;;;;;;;0.00;0.00;;;19.40;79.20;;;;;;4867993;29;20089;-78
2023/09/29 08:03:45;;;;;;;0.00;0.00;;;19.60;78.90;;;;;;4885340;29;20385;-77
2023/09/29 08:06:11;;;;;;;0.00;0.00;;;19.70;78.30;;;;;;4880063;29;20943;-77
2023/09/29 08:08:37;;;;;;;0.00;0.00;;;19.80;78.00;;;;;;4884417;29;20028;-78
2023/09/29 08:11:10;;;;;;;0.00;0.00;;;19.70;77.60;;;;;;4884762;29;20068;-78
2023/09/29 08:13:42;;;;;;;0.00;0.00;;;19.80;77.40;;;;;;4884421;29;20028;-78
2023/09/29 08:16:08;;;;;;;;;;;19.80;77.70;;;;;;4879805;29;20037;-78
2023/09/29 08:18:34;;;;;;;0.00;0.00;;;19.80;77.40;;;;;;4879538;29;19907;-78
2023/09/29 08:21:00;;;;;;;0.00;0.00;;;19.80;77.70;;;;;;4880247;29;20064;-78
2023/09/29 08:23:30;;;;;;;0.00;0.00;;;19.60;77.90;;;;;;4881158;29;20040;-77
2023/09/29 08:25:55;;;;;;;0.00;0.00;;;19.60;78.10;;;;;;4874663;29;20036;-78
2023/09/29 08:28:23;;;;;;;0.00;0.00;;;19.60;78.10;;;;;;4879855;29;20136;-77
2023/09/29 08:30:49;;;;;;;0.00;0.00;;;19.60;78.10;;;;;;4882890;29;20040;-78
2023/09/29 08:33:15;;;;;;;0.00;0.00;;;19.60;78.10;;;;;;4883645;29;20480;-78
2023/09/29 08:35:40;;;;;;;0.10;0.10;;;19.70;78.10;;;;;;4881159;29;20025;-77
2023/09/29 08:38:06;;;;;;;0.10;0.10;;;19.70;77.90;;;;;;4883140;29;20037;-78
2023/09/29 08:40:39;;;;;;;0.00;0.00;;;19.80;77.70;;;;;;4890745;29;20436;-78
2023/09/29 08:43:06;;;;;;;0.08;0.08;;;19.80;77.80;;;;;;4903375;29;20036;-78
2023/09/29 08:45:32;;;;;;;0.00;0.00;;;19.50;77.40;;;;;;4884283;29;20127;-78
2023/09/29 08:48:00;;;;;;;0.00;0.00;;;19.10;76.80;;;;;;4896637;29;20147;-77
2023/09/29 08:50:28;;;;;;;0.00;0.00;;;18.80;77.10;;;;;;4903176;29;20091;-78
2023/09/29 08:52:56;;;;;;;0.00;0.00;;;18.70;77.80;;;;;;4895493;29;20025;-78
2023/09/29 08:55:23;;;;;;;0.10;0.10;;;18.70;78.80;;;;;;4886666;29;20099;-77
2023/09/29 08:57:49;;;;;;;0.00;0.00;;;18.70;78.90;;;;;;4886742;29;20643;-78
2023/09/29 09:00:16;;;;;;;0.10;0.10;;;18.70;78.90;;;;;;4883902;29;20108;-78
2023/09/29 09:02:45;;;;;;;0.10;0.10;;;18.70;78.90;;;;;;4882795;29;20053;-78
2023/09/29 09:05:12;;;;;;;0.10;0.10;;;18.80;79.00;;;;;;4901921;29;20025;-78
2023/09/29 09:07:43;;;;;;;0.10;0.10;;;18.80;78.20;;;;;;4891113;29;20539;-78
2023/09/29 09:10:11;;;;;;;0.10;0.10;;;18.80;78.40;;;;;;4895793;29;20399;-78
2023/09/29 09:12:39;;;;;;;0.10;0.10;;;19.00;78.70;;;;;;4902869;29;20024;-78
2023/09/29 09:15:07;;;;;;;0.10;0.10;;;19.10;78.20;;;;;;4890337;29;20029;-77
2023/09/29 09:17:34;;;;;;;0.10;0.10;;;19.30;77.70;;;;;;4883854;29;20029;-78
2023/09/29 09:20:00;;;;;;;0.10;0.10;;;19.40;76.60;;;;;;4882902;29;20032;-78
2023/09/29 09:22:31;;;;;;;0.10;0.10;;;19.60;76.40;;;;;;4883640;29;20029;-78
2023/09/29 09:25:02;;;;;;;0.10;0.10;;;19.70;75.60;;;;;;4884671;29;20064;-77
2023/09/29 09:27:41;;;;;;;0.10;0.10;;;19.80;75.40;;;;;;4897232;29;20111;-78
2023/09/29 09:30:23;;;;;;;0.10;0.10;;;19.80;75.50;;;;;;4896173;29;20033;-78
2023/09/29 09:32:49;;;;;;;0.10;0.10;;;19.80;74.60;;;;;;4882640;29;20059;-77
2023/09/29 09:35:27;;;;;;;0.10;0.10;;;19.80;74.90;;;;;;4895556;29;20071;-77
2023/09/29 09:37:54;;;;;;;0.00;0.00;;;19.80;74.30;;;;;;4866608;29;20066;-78
2023/09/29 09:40:20;;;;;;;0.10;0.10;;;19.80;74.60;;;;;;4888716;29;20040;-78
2023/09/29 09:42:48;;;;;;;0.10;0.10;;;20.00;74.80;;;;;;4900794;29;20128;-78
2023/09/29 09:45:14;;;;;;;0.00;0.00;;;20.20;74.10;;;;;;4883634;29;20021;-78
2023/09/29 09:47:40;;;;;;;0.10;0.10;;;20.20;73.60;;;;;;4882898;29;20117;-77
2023/09/29 09:50:10;;;;;;;0.10;0.10;;;20.30;72.30;;;;;;4886259;29;20849;-78
2023/09/29 09:52:36;;;;;;;0.10;0.10;;;20.30;72.60;;;;;;4889963;29;20115;-77
2023/09/29 09:55:13;;;;;;;0.00;0.00;;;20.40;72.20;;;;;;4887673;29;20080;-78
2023/09/29 09:57:50;;;;;;;0.10;0.10;;;20.50;72.20;;;;;;4896076;29;20035;-76
2023/09/29 10:00:15;;;;;;;0.00;0.00;;;20.70;71.10;;;;;;4889650;29;20071;-78
2023/09/29 10:02:57;;;;;;;0.00;0.00;;;20.80;71.50;;;;;;4885648;29;20033;-76
2023/09/29 10:05:30;;;;;;;0.00;0.00;;;20.70;71.30;;;;;;4886155;29;20053;-76
2023/09/29 10:08:06;;;;;;;0.05;0.05;;;20.70;71.10;;;;;;4891474;29;20040;-77
2023/09/29 10:10:39;;;;;;;0.00;0.00;;;20.50;71.00;;;;;;4885610;29;20032;-77
2023/09/29 10:13:11;;;;;;;;;;;20.70;71.40;;;;;;4868660;29;20123;-78
2023/09/29 10:15:38;;;;;;;0.05;0.05;;;20.90;71.40;;;;;;4870817;29;20308;-78
2023/09/29 10:18:14;;;;;;;0.08;0.08;;;21.00;70.70;;;;;;4885410;29;20029;-78
2023/09/29 10:20:40;;;;;;;0.00;0.00;;;21.00;69.50;;;;;;4885702;29;20033;-77
2023/09/29 10:23:07;;;;;;;0.00;0.00;;;20.90;69.70;;;;;;4874915;29;20029;-77
2023/09/29 10:25:38;;;;;;;0.10;0.10;;;20.80;68.50;;;;;;4884320;29;20037;-84
2023/09/29 10:28:08;;;;;;;0.10;0.10;;;20.80;69.60;;;;;;4881191;29;20109;-75
2023/09/29 10:30:35;;;;;;;0.10;0.10;;;20.90;68.40;;;;;;4882127;29;20043;-77
2023/09/29 10:33:11;;;;;;;0.10;0.10;;;20.90;68.20;;;;;;4891188;29;20036;-76
2023/09/29 10:35:46;;;;;;;0.10;0.10;;;21.10;67.70;;;;;;4888608;29;20039;-77
2023/09/29 10:38:33;;;;;;;0.10;0.10;;;21.30;67.10;;;;;;4880297;29;20033;-74
2023/09/29 10:40:59;;;;;;;0.10;0.10;;;21.30;66.20;;;;;;4885791;29;20842;-77
2023/09/29 10:43:24;;;;;;;0.10;0.10;;;21.40;67.10;;;;;;4880978;29;20132;-74
2023/09/29 10:45:51;;;;;;;0.05;0.05;;;21.50;66.10;;;;;;4880749;29;20065;-74
2023/09/29 10:48:26;;;;;;;0.03;0.03;;;21.30;66.00;;;;;;4864739;29;20577;-73
2023/09/29 10:50:52;;;;;;;0.10;0.10;;;21.30;65.80;;;;;;4880861;29;20385;-74
2023/09/29 10:53:21;;;;;;;0.08;0.08;;;21.20;66.00;;;;;;4864685;29;20025;-74
2023/09/29 10:55:54;;;;;;;0.10;0.10;;;21.10;66.20;;;;;;4888506;29;20029;-74
2023/09/29 10:58:21;;;;;;;;;;;21.00;66.00;;;;;;4885150;29;20025;-75
2023/09/29 11:00:49;;;;;;;0.10;0.10;;;20.80;65.20;;;;;;4882743;29;19919;-74
2023/09/29 11:03:21;;;;;;;0.10;0.10;;;20.80;65.90;;;;;;4865881;29;20039;-80
2023/09/29 11:05:54;;;;;;;0.10;0.10;;;20.90;65.90;;;;;;4864698;29;20072;-78
2023/09/29 11:08:28;;;;;;;0.00;0.00;;;21.00;65.80;;;;;;4883828;29;20041;-75
2023/09/29 11:11:00;;;;;;;0.00;0.00;;;20.90;64.90;;;;;;4884866;29;20039;-78
2023/09/29 11:13:27;;;;;;;0.00;0.00;;;21.20;65.90;;;;;;4890270;29;20116;-76
2023/09/29 11:15:54;;;;;;;0.10;0.10;;;21.30;65.50;;;;;;4887780;29;20520;-76
2023/09/29 11:18:27;;;;;;;0.10;0.10;;;21.40;64.40;;;;;;4871078;29;20100;-75
2023/09/29 11:20:53;;;;;;;0.10;0.10;;;21.50;64.30;;;;;;4875492;29;20024;-75
2023/09/29 11:23:18;;;;;;;0.00;0.00;;;21.50;63.60;;;;;;4892341;29;20040;-75
2023/09/29 11:25:45;;;;;;;0.10;0.10;;;21.60;63.90;;;;;;4873897;29;20025;-75
2023/09/29 11:28:12;;;;;;;0.00;0.00;;;21.60;63.40;;;;;;4894168;29;20028;-75
2023/09/29 11:30:39;;;;;;;0.10;0.10;;;21.60;63.10;;;;;;4877147;29;20059;-76
2023/09/29 11:33:06;;;;;;;0.10;0.10;;;21.70;63.10;;;;;;4893800;29;20519;-75
2023/09/29 11:35:32;;;;;;;0.10;0.10;;;21.60;63.30;;;;;;4895417;29;20021;-75
2023/09/29 11:38:00;;;;;;;0.00;0.00;;;21.60;63.40;;;;;;4894721;29;20043;-75
2023/09/29 11:40:26;;;;;;;0.10;0.10;;;21.60;62.60;;;;;;4890481;29;20064;-75
2023/09/29 11:42:52;;;;;;;0.00;0.00;;;21.80;62.80;;;;;;4891140;29;20056;-75
2023/09/29 11:45:18;;;;;;;0.00;0.00;;;21.90;62.60;;;;;;4889007;29;20039;-75
2023/09/29 11:47:44;;;;;;;0.00;0.00;;;21.90;62.70;;;;;;4892519;29;20029;-75
2023/09/29 11:50:11;;;;;;;0.05;0.05;;;21.80;62.40;;;;;;4886212;29;20040;-75
2023/09/29 11:52:40;;;;;;;0.00;0.00;;;21.80;61.30;;;;;;4889801;29;20134;-75
2023/09/29 11:55:11;;;;;;;0.10;0.10;;;21.80;62.30;;;;;;4883280;29;20075;-77
2023/09/29 11:57:40;;;;;;;0.00;0.00;;;21.80;62.00;;;;;;4884791;29;20036;-74
2023/09/29 12:00:14;;;;;;;0.10;0.10;;;21.80;62.20;;;;;;4889123;29;20040;-74
2023/09/29 12:02:39;;;;;;;0.10;0.10;;;21.80;62.30;;;;;;4887577;29;20036;-74
2023/09/29 12:05:06;;;;;;;0.03;0.03;;;21.80;63.10;;;;;;4884823;29;20025;-74
2023/09/29 12:07:32;;;;;;;0.00;0.00;;;21.70;62.50;;;;;;4879038;29;20025;-74
2023/09/29 12:09:59;;;;;;;0.10;0.10;;;21.60;62.40;;;;;;4879628;29;20041;-74
2023/09/29 12:12:25;;;;;;;0.10;0.10;;;21.40;62.90;;;;;;4880566;29;20400;-74
2023/09/29 12:14:54;;;;;;;0.10;0.10;;;21.50;63.00;;;;;;4882581;29;20029;-74
2023/09/29 12:17:20;;;;;;;0.10;0.10;;;21.80;63.00;;;;;;4886556;29;20075;-74
2023/09/29 12:19:46;;;;;;;0.08;0.08;;;22.00;62.50;;;;;;4883473;29;20060;-74
2023/09/29 12:22:13;;;;;;;0.10;0.10;;;22.00;61.50;;;;;;4883557;29;20025;-74
2023/09/29 12:24:39;;;;;;;0.00;0.00;;;21.90;61.50;;;;;;4884419;29;20116;-74
2023/09/29 12:27:08;;;;;;;0.10;0.10;;;22.10;60.80;;;;;;4882998;29;20064;-74
2023/09/29 12:29:35;;;;;;;0.00;0.00;;;22.30;60.70;;;;;;4883150;29;20067;-74
2023/09/29 12:32:01;;;;;;;0.10;0.10;;;22.30;60.70;;;;;;4888343;29;20445;-74
2023/09/29 12:34:32;;;;;;;0.00;0.00;;;22.30;60.40;;;;;;4874166;29;20049;-74
2023/09/29 12:37:01;;;;;;;0.10;0.10;;;22.40;60.80;;;;;;4883167;29;20224;-75
2023/09/29 12:39:27;;;;;;;0.10;0.10;;;22.50;60.10;;;;;;4885106;29;20017;-74
2023/09/29 12:41:53;;;;;;;0.00;0.00;;;22.50;60.30;;;;;;4895218;29;20032;-74
2023/09/29 12:44:19;;;;;;;0.10;0.10;;;22.50;60.60;;;;;;4885994;29;20088;-74
2023/09/29 12:46:45;;;;;;;0.10;0.10;;;22.40;59.40;;;;;;4901347;29;20102;-74
2023/09/29 12:49:11;;;;;;;0.00;0.00;;;22.30;60.40;;;;;;4885943;29;20035;-74
2023/09/29 12:51:46;;;;;;;0.00;0.00;;;22.30;60.50;;;;;;4881888;29;20400;-74
2023/09/29 12:54:11;;;;;;;0.00;0.00;;;22.20;60.50;;;;;;4884929;29;20036;-75
2023/09/29 12:56:37;;;;;;;0.00;0.00;;;21.90;60.60;;;;;;4902354;29;20456;-74
2023/09/29 12:59:02;;;;;;;0.00;0.00;;;21.90;61.40;;;;;;4900014;29;20401;-74
2023/09/29 13:01:32;;;;;;;0.00;0.00;;;21.90;61.20;;;;;;4902243;29;20033;-75
2023/09/29 13:03:58;;;;;;;0.03;0.03;;;22.00;62.00;;;;;;4885330;29;20032;-74
2023/09/29 13:06:24;;;;;;;0.00;0.00;;;22.00;60.60;;;;;;4902472;29;20084;-74
2023/09/29 13:08:49;;;;;;;0.00;0.00;;;22.00;60.00;;;;;;4891393;29;20033;-74
2023/09/29 13:11:18;;;;;;;0.00;0.00;;;22.10;60.00;;;;;;4882601;29;20484;-74
2023/09/29 13:13:45;;;;;;;0.05;0.05;;;22.10;60.60;;;;;;4886711;29;20119;-74
2023/09/29 13:16:11;;;;;;;0.00;0.00;;;22.20;60.50;;;;;;4884721;29;20042;-74
2023/09/29 13:18:37;;;;;;;0.00;0.00;;;22.30;60.40;;;;;;4884701;29;20039;-75
2023/09/29 13:21:03;;;;;;;0.00;0.00;;;22.30;60.40;;;;;;4885394;29;20040;-76
2023/09/29 13:23:29;;;;;;;0.10;0.10;;;22.30;60.80;;;;;;4881076;29;20381;-75
2023/09/29 13:25:54;;;;;;;0.10;0.10;;;22.20;59.90;;;;;;4897750;29;20036;-75
2023/09/29 13:28:20;;;;;;;0.00;0.00;;;22.20;60.30;;;;;;4899264;29;20021;-74
2023/09/29 13:30:45;;;;;;;0.00;0.00;;;22.20;60.10;;;;;;4898801;29;20056;-75
2023/09/29 13:33:11;;;;;;;0.00;0.00;;;22.20;59.70;;;;;;4899740;29;20762;-75
2023/09/29 13:35:37;;;;;;;0.00;0.00;;;22.30;60.00;;;;;;4901789;29;20036;-75
2023/09/29 13:38:03;;;;;;;0.00;0.00;;;22.30;59.30;;;;;;4900263;29;20060;-75
2023/09/29 13:40:29;;;;;;;0.00;0.00;;;22.40;59.60;;;;;;4882052;29;20028;-75
2023/09/29 13:42:55;;;;;;;0.00;0.00;;;22.50;59.50;;;;;;4902022;29;20027;-75
2023/09/29 13:45:21;;;;;;;0.00;0.00;;;22.50;59.50;;;;;;4884070;29;20024;-75
2023/09/29 13:47:47;;;;;;;0.10;0.10;;;22.50;59.40;;;;;;4898613;29;20113;-75
2023/09/29 13:50:13;;;;;;;0.10;0.10;;;22.60;59.20;;;;;;4899906;29;20781;-75
2023/09/29 13:52:40;;;;;;;0.00;0.00;;;22.60;58.90;;;;;;4885184;29;20056;-75
2023/09/29 13:55:06;;;;;;;0.00;0.00;;;22.60;59.30;;;;;;4901264;29;20031;-75
2023/09/29 13:57:32;;;;;;;0.00;0.00;;;22.50;59.30;;;;;;4899857;29;20040;-75
2023/09/29 13:59:58;;;;;;;0.00;0.00;;;22.40;59.40;;;;;;4882840;29;20192;-75
2023/09/29 14:02:24;;;;;;;0.00;0.00;;;22.40;59.00;;;;;;4897406;29;20100;-74
2023/09/29 14:04:50;;;;;;;0.00;0.00;;;22.40;58.90;;;;;;4892993;29;20037;-75
2023/09/29 14:07:16;;;;;;;0.03;0.03;;;22.40;59.90;;;;;;4883295;29;20029;-75
2023/09/29 14:09:42;;;;;;;0.00;0.00;;;22.30;59.30;;;;;;4896754;29;20460;-75
2023/09/29 14:12:11;;;;;;;0.10;0.10;;;22.30;58.70;;;;;;4897212;29;20510;-75
2023/09/29 14:14:36;;;;;;;0.00;0.00;;;22.20;59.20;;;;;;4881515;29;20052;-75
2023/09/29 14:17:04;;;;;;;0.00;0.00;;;22.20;59.70;;;;;;4883936;29;20060;-75
2023/09/29 14:19:30;;;;;;;0.00;0.00;;;22.30;59.00;;;;;;4898379;29;20036;-75
2023/09/29 14:21:56;;;;;;;0.00;0.00;;;22.10;59.10;;;;;;4898262;29;20033;-77
2023/09/29 14:24:22;;;;;;;0.00;0.00;;;22.00;58.90;;;;;;4899944;29;20047;-78
2023/09/29 14:26:47;;;;;;;0.10;0.10;;;21.90;59.00;;;;;;4896851;29;20024;-74
2023/09/29 14:29:16;;;;;;;0.00;0.00;;;22.00;60.00;;;;;;4895171;29;20032;-81
2023/09/29 14:31:44;;;;;;;0.10;0.10;;;22.00;59.70;;;;;;4876142;29;20052;-80
2023/09/29 14:34:14;;;;;;;0.00;0.00;;;21.90;60.50;;;;;;4894473;29;20060;-78
2023/09/29 14:36:42;;;;;;;0.00;0.00;;;21.80;59.60;;;;;;4899816;29;20025;-78
2023/09/29 14:39:09;;;;;;;0.00;0.00;;;21.80;59.60;;;;;;4894185;29;20044;-76
2023/09/29 14:41:37;;;;;;;0.00;0.00;;;21.70;59.70;;;;;;4894855;29;20024;-75
2023/09/29 14:44:03;;;;;;;0.00;0.00;;;21.70;60.00;;;;;;4900490;29;20028;-74
2023/09/29 14:46:29;;;;;;;0.00;0.00;;;21.60;60.40;;;;;;4900193;29;20036;-74
2023/09/29 14:48:56;;;;;;;0.00;0.00;;;21.60;59.40;;;;;;4898125;29;20392;-74
2023/09/29 14:51:21;;;;;;;0.00;0.00;;;21.60;60.00;;;;;;4899077;29;20111;-83
2023/09/29 14:53:48;;;;;;;0.03;0.03;;;21.60;59.90;;;;;;4892790;29;20028;-81
2023/09/29 14:56:14;;;;;;;0.03;0.03;;;21.60;60.00;;;;;;4889441;29;20036;-74
2023/09/29 14:58:43;;;;;;;0.00;0.00;;;21.60;59.80;;;;;;4893911;29;20523;-74
2023/09/29 15:01:10;;;;;;;0.00;0.00;;;21.70;60.40;;;;;;4893342;29;20066;-74
2023/09/29 15:03:36;;;;;;;0.00;0.00;;;21.60;60.40;;;;;;4894281;29;20025;-75
2023/09/29 15:06:07;;;;;;;0.00;0.00;;;21.60;60.40;;;;;;4894140;29;20036;-75
2023/09/29 15:08:40;;;;;;;0.00;0.00;;;21.60;60.30;;;;;;4897715;29;20035;-75
2023/09/29 15:11:06;;;;;;;0.00;0.00;;;21.50;59.20;;;;;;4896402;29;20444;-74
2023/09/29 15:13:32;;;;;;;0.00;0.00;;;21.40;59.50;;;;;;4896259;29;20491;-74
2023/09/29 15:15:58;;;;;;;0.10;0.10;;;21.50;60.10;;;;;;4895052;29;20043;-74
2023/09/29 15:18:24;;;;;;;0.00;0.00;;;21.40;60.40;;;;;;4896409;29;20032;-74
2023/09/29 15:20:50;;;;;;;0.00;0.00;;;21.50;60.60;;;;;;4895936;29;20028;-74
2023/09/29 15:23:17;;;;;;;0.00;0.00;;;21.50;59.80;;;;;;4897499;29;20036;-75
2023/09/29 15:25:44;;;;;;;0.00;0.00;;;21.50;60.30;;;;;;4893516;29;20029;-74
2023/09/29 15:28:15;;;;;;;0.03;0.03;;;21.60;60.50;;;;;;4894826;29;20025;-74
2023/09/29 15:30:43;;;;;;;0.00;0.00;;;21.60;60.50;;;;;;4894364;29;20050;-74
2023/09/29 15:33:13;;;;;;;0.00;0.00;;;21.60;60.00;;;;;;4898800;29;20252;-75
2023/09/29 15:35:50;;;;;;;0.00;0.00;;;21.60;59.60;;;;;;4893825;29;20032;-74
2023/09/29 15:38:17;;;;;;;0.00;0.00;;;21.60;58.60;;;;;;4897428;29;20061;-74
2023/09/29 15:40:42;;;;;;;0.00;0.00;;;21.50;58.90;;;;;;4893278;29;20052;-75
2023/09/29 15:43:08;;;;;;;0.00;0.00;;;21.50;59.10;;;;;;4892471;29;20057;-75
2023/09/29 15:45:34;;;;;;;0.00;0.00;;;21.50;59.20;;;;;;4878022;29;20025;-75
2023/09/29 15:47:59;;;;;;;0.00;0.00;;;21.50;59.60;;;;;;4897571;29;20044;-75
2023/09/29 15:50:25;;;;;;;0.00;0.00;;;21.60;59.20;;;;;;4889839;29;20024;-74
2023/09/29 15:52:50;;;;;;;0.00;0.00;;;21.40;58.00;;;;;;4899261;29;20024;-74
2023/09/29 15:55:16;;;;;;;0.00;0.00;;;21.30;57.80;;;;;;4878812;29;20127;-75
2023/09/29 15:57:42;;;;;;;0.00;0.00;;;21.30;58.00;;;;;;4893298;29;20127;-75
2023/09/29 16:00:08;;;;;;;0.00;0.00;;;21.20;58.10;;;;;;4879260;29;20028;-76
2023/09/29 16:02:36;;;;;;;0.00;0.00;;;21.20;58.80;;;;;;4891361;29;20036;-76
2023/09/29 16:05:02;;;;;;;0.00;0.00;;;21.10;59.20;;;;;;4875106;29;20083;-76
2023/09/29 16:07:29;;;;;;;0.00;0.00;;;21.00;59.60;;;;;;4890453;29;20029;-76
2023/09/29 16:09:55;;;;;;;0.00;0.00;;;20.90;59.30;;;;;;4895648;29;20036;-76
2023/09/29 16:12:20;;;;;;;0.00;0.00;;;20.80;60.30;;;;;;4893640;29;20037;-76
2023/09/29 16:14:46;;;;;;;0.00;0.00;;;20.80;60.30;;;;;;4896584;29;20037;-75
2023/09/29 16:17:11;;;;;;;0.00;0.00;;;20.70;61.00;;;;;;4879523;29;20655;-75
2023/09/29 16:19:37;;;;;;;0.00;0.00;;;20.50;61.70;;;;;;4881619;29;20032;-75
2023/09/29 16:22:03;;;;;;;0.00;0.00;;;20.50;62.70;;;;;;4862232;29;20036;-76
2023/09/29 16:24:31;;;;;;;0.00;0.00;;;20.40;63.00;;;;;;4896278;29;20396;-75
2023/09/29 16:26:57;;;;;;;0.03;0.03;;;20.30;63.40;;;;;;4894653;29;20037;-76
2023/09/29 16:29:23;;;;;;;0.10;0.10;;;20.30;63.40;;;;;;4872403;29;20080;-76
2023/09/29 16:31:48;;;;;;;0.00;0.00;;;20.30;63.40;;;;;;4896572;29;20515;-79
2023/09/29 16:34:14;;;;;;;0.00;0.00;;;20.30;63.50;;;;;;4890270;29;20040;-76
2023/09/29 16:36:39;;;;;;;0.00;0.00;;;20.30;63.70;;;;;;4896439;29;20072;-77
2023/09/29 16:39:05;;;;;;;0.00;0.00;;;20.30;63.70;;;;;;4878780;29;20075;-77
2023/09/29 16:41:31;;;;;;;0.00;0.00;;;20.30;63.70;;;;;;4899028;29;20066;-77
2023/09/29 16:43:58;;;;;;;0.13;0.10;;;20.30;64.10;;;;;;4898346;29;20507;-77
2023/09/29 16:46:27;;;;;;;0.00;0.00;;;20.30;64.00;;;;;;4898942;29;20044;-77
2023/09/29 16:48:53;;;;;;;0.00;0.00;;;20.30;64.00;;;;;;4862608;29;20818;-77
2023/09/29 16:51:28;;;;;;;0.00;0.00;;;20.20;64.60;;;;;;4873193;29;20052;-77
2023/09/29 16:53:54;;;;;;;0.00;0.00;;;20.10;65.20;;;;;;4887541;29;20021;-77
2023/09/29 16:56:25;;;;;;;0.00;0.00;;;20.00;65.60;;;;;;4887937;29;20132;-77
2023/09/29 16:58:51;;;;;;;0.00;0.00;;;20.00;65.60;;;;;;4879430;29;20024;-77
2023/09/29 17:01:17;;;;;;;0.00;0.00;;;20.00;65.70;;;;;;4898377;29;20119;-77
2023/09/29 17:03:43;;;;;;;0.00;0.00;;;20.00;65.90;;;;;;4903035;29;20044;-77
2023/09/29 17:06:09;;;;;;;0.00;0.00;;;19.90;66.10;;;;;;4902356;29;20035;-77
2023/09/29 17:08:34;;;;;;;0.00;0.00;;;19.90;65.90;;;;;;4900809;29;20032;-80
2023/09/29 17:11:20;;;;;;;0.10;0.10;;;19.90;66.10;;;;;;4885655;29;20067;-77
2023/09/29 17:13:46;;;;;;;0.00;0.00;;;19.80;66.30;;;;;;4892745;29;20127;-75
2023/09/29 17:16:13;;;;;;;0.00;0.00;;;19.70;66.50;;;;;;4899784;29;20064;-75
2023/09/29 17:18:39;;;;;;;0.00;0.00;;;19.60;66.80;;;;;;4902199;29;20021;-76